Marion Junction, Alabama
Current Conditions -  °F | °C
As of 10:15 AM on Friday 19 Dec 2014 (Local Time) from KSEM Reporting Station
Clear Clear  
Wind Chill: 46°   Ceiling: Unl
Heat Index: 46°   Visibility: 10mi
Dew Point: 36°   Wind: 0mph
Humidity: 66%   Direction: NA
Pressure: 30.23"   Gusts: NA
Location:  32.44°N, 87.24°W
Report Text: KSEM 191615Z AUTO 00000KT 10SM CLR 08/02 A3023 RMK AO2
Loading
Personal Weather Stations






























Interactive Weather Map New forecast layout! Learn more

10-Day Weather Forecast

Advertisements
Track Severe Weather on mobile